Time;durP1;ratioP1;P1;durP2;ratioP2;P2;SDS_P1;SDS_P2;PMS_P1;PMS_P2;Temp;Humidity;BMP_temperature;BMP_pressure;BME280_temperature;BME280_humidity;BME280_pressure;Samples;Min_cycle;Max_cycle;Signal;HPM_P1;HPM_P2
2023/02/23 00:01:40;;;;;;;0.10;0.10;;;9.40;99.90;;;;;;5014672;28;20202;-83
2023/02/23 00:04:06;;;;;;;0.10;0.10;;;9.30;99.90;;;;;;5017790;28;20221;-82
2023/02/23 00:06:34;;;;;;;0.10;0.10;;;9.30;99.90;;;;;;5024741;28;20305;-81
2023/02/23 00:09:01;;;;;;;0.10;0.10;;;9.40;99.90;;;;;;5024332;28;20194;-81
2023/02/23 00:11:27;;;;;;;0.10;0.10;;;9.60;99.90;;;;;;5026849;28;20208;-82
2023/02/23 00:13:55;;;;;;;0.10;0.10;;;9.70;99.90;;;;;;5025873;28;20288;-81
2023/02/23 00:16:23;;;;;;;0.00;0.00;;;9.80;99.90;;;;;;5024357;28;20210;-81
2023/02/23 00:18:54;;;;;;;0.10;0.10;;;9.80;99.90;;;;;;5022108;28;20197;-81
2023/02/23 00:21:31;;;;;;;0.00;0.00;;;9.90;99.90;;;;;;5022220;28;20233;-81
2023/02/23 00:23:59;;;;;;;0.00;0.00;;;10.00;99.90;;;;;;5022691;28;20201;-82
2023/02/23 00:26:30;;;;;;;0.10;0.10;;;10.00;99.90;;;;;;5021926;28;20190;-82
2023/02/23 00:28:56;;;;;;;0.10;0.10;;;10.00;99.90;;;;;;5019722;28;20244;-82
2023/02/23 00:31:24;;;;;;;0.10;0.10;;;10.00;99.90;;;;;;5018689;28;20209;-82
2023/02/23 00:33:53;;;;;;;0.10;0.10;;;10.00;99.90;;;;;;5018771;28;20787;-82
2023/02/23 00:36:20;;;;;;;0.10;0.10;;;10.00;99.90;;;;;;5020353;28;20260;-82
2023/02/23 00:38:45;;;;;;;0.07;0.07;;;10.00;99.90;;;;;;5023523;28;20203;-82
2023/02/23 00:41:16;;;;;;;0.10;0.10;;;10.10;99.90;;;;;;5022133;28;20674;-82
2023/02/23 00:43:46;;;;;;;0.10;0.10;;;10.00;99.90;;;;;;5017936;28;20232;-81
2023/02/23 00:46:16;;;;;;;0.10;0.10;;;10.10;99.90;;;;;;5024209;28;20261;-83
2023/02/23 00:48:46;;;;;;;0.10;0.10;;;10.10;99.90;;;;;;5016761;28;20186;-82
2023/02/23 00:51:14;;;;;;;0.10;0.10;;;10.00;99.90;;;;;;5022630;28;20213;-82
2023/02/23 00:53:41;;;;;;;0.10;0.10;;;10.00;99.90;;;;;;5023392;28;20210;-81
2023/02/23 00:56:09;;;;;;;0.10;0.10;;;10.10;99.90;;;;;;5025438;28;20194;-82
2023/02/23 00:58:35;;;;;;;0.10;0.10;;;10.10;99.90;;;;;;5024945;28;20208;-82
2023/02/23 01:01:01;;;;;;;0.10;0.10;;;10.10;99.90;;;;;;5019311;28;20729;-82
2023/02/23 01:03:28;;;;;;;0.10;0.10;;;10.10;99.90;;;;;;5023836;28;20207;-81
2023/02/23 01:05:59;;;;;;;0.10;0.10;;;10.10;99.90;;;;;;5020845;28;20183;-82
2023/02/23 01:08:26;;;;;;;0.10;0.10;;;10.10;99.90;;;;;;5022589;28;20651;-82
2023/02/23 01:10:52;;;;;;;0.10;0.10;;;10.10;99.90;;;;;;5022148;28;20659;-82
2023/02/23 01:13:19;;;;;;;0.10;0.10;;;9.90;99.90;;;;;;5023073;28;20253;-81
2023/02/23 01:15:46;;;;;;;0.10;0.10;;;9.60;99.90;;;;;;5022443;28;20679;-82
2023/02/23 01:18:13;;;;;;;0.10;0.10;;;9.70;99.90;;;;;;5024511;28;21116;-82
2023/02/23 01:20:40;;;;;;;0.10;0.10;;;9.60;99.90;;;;;;5020903;28;20206;-82
2023/02/23 01:23:09;;;;;;;0.10;0.10;;;9.50;99.90;;;;;;5017706;28;20202;-82
2023/02/23 01:25:35;;;;;;;0.10;0.10;;;9.30;99.90;;;;;;5024651;28;21288;-82
2023/02/23 01:28:01;;;;;;;0.10;0.10;;;9.30;99.90;;;;;;5019320;28;20257;-82
2023/02/23 01:30:27;;;;;;;0.10;0.10;;;9.20;99.90;;;;;;5023722;28;20195;-82
2023/02/23 01:32:52;;;;;;;0.03;0.03;;;9.30;99.90;;;;;;5025312;28;20652;-82
2023/02/23 01:35:18;;;;;;;0.10;0.10;;;9.40;99.90;;;;;;5022043;28;20182;-82
2023/02/23 01:37:43;;;;;;;0.00;0.00;;;9.30;99.90;;;;;;5023843;28;20206;-82
2023/02/23 01:40:27;;;;;;;0.10;0.10;;;9.20;99.90;;;;;;5017644;28;20213;-81
2023/02/23 01:42:54;;;;;;;0.10;0.10;;;9.30;99.90;;;;;;5024844;28;20240;-82
2023/02/23 01:45:34;;;;;;;0.00;0.00;;;9.20;99.90;;;;;;5022707;28;20207;-82
2023/02/23 01:48:21;;;;;;;0.10;0.10;;;9.10;99.90;;;;;;5018579;28;20626;-81
2023/02/23 01:50:49;;;;;;;0.10;0.10;;;9.10;99.90;;;;;;5021137;28;20244;-83
2023/02/23 01:53:16;;;;;;;0.00;0.00;;;9.10;99.90;;;;;;5022893;28;20221;-82
2023/02/23 01:55:43;;;;;;;0.10;0.10;;;9.10;99.90;;;;;;5018700;28;20278;-81
2023/02/23 01:58:14;;;;;;;0.10;0.10;;;9.10;99.90;;;;;;5039140;28;20233;-82
2023/02/23 02:00:47;;;;;;;0.10;0.10;;;9.20;99.90;;;;;;5021976;28;20202;-81
2023/02/23 02:03:22;;;;;;;0.10;0.10;;;9.40;99.90;;;;;;5022469;28;20202;-81
2023/02/23 02:05:49;;;;;;;0.10;0.10;;;9.50;99.90;;;;;;5022983;28;20693;-82
2023/02/23 02:08:17;;;;;;;0.10;0.10;;;9.50;99.90;;;;;;5018417;28;20490;-82
2023/02/23 02:10:45;;;;;;;0.10;0.10;;;9.50;99.90;;;;;;5018517;28;20214;-82
2023/02/23 02:13:17;;;;;;;0.10;0.10;;;9.60;99.90;;;;;;5018942;28;20221;-82
2023/02/23 02:16:01;;;;;;;0.10;0.10;;;9.60;99.90;;;;;;5023137;28;20251;-81
2023/02/23 02:18:40;;;;;;;0.10;0.10;;;9.60;99.90;;;;;;5016806;28;20200;-81
2023/02/23 02:21:38;;;;;;;0.10;0.10;;;9.50;99.90;;;;;;5019866;28;20174;-81
2023/02/23 02:24:42;;;;;;;0.10;0.10;;;9.40;99.90;;;;;;5018391;28;20213;-82
2023/02/23 02:27:18;;;;;;;0.10;0.10;;;9.50;99.90;;;;;;5016964;28;20192;-82
2023/02/23 02:30:15;;;;;;;0.10;0.10;;;9.60;99.90;;;;;;5022981;28;20170;-82
2023/02/23 02:32:43;;;;;;;0.03;0.03;;;9.80;99.90;;;;;;5021244;28;20269;-82
2023/02/23 02:35:55;;;;;;;0.10;0.10;;;9.80;99.90;;;;;;5018990;28;20175;-82
2023/02/23 02:38:49;;;;;;;0.10;0.10;;;9.70;99.90;;;;;;5020773;28;20193;-81
2023/02/23 02:41:41;;;;;;;0.10;0.10;;;9.90;99.90;;;;;;5022854;28;20252;-82
2023/02/23 02:44:12;;;;;;;0.07;0.07;;;9.90;99.90;;;;;;5020574;28;20202;-82
2023/02/23 02:46:42;;;;;;;0.10;0.10;;;9.90;99.90;;;;;;5022184;28;20758;-82
2023/02/23 02:49:21;;;;;;;0.10;0.10;;;9.90;99.90;;;;;;5021111;28;20773;-82
2023/02/23 02:52:18;;;;;;;0.10;0.10;;;9.70;99.90;;;;;;5021892;28;20174;-81
2023/02/23 02:54:52;;;;;;;0.10;0.10;;;9.40;99.90;;;;;;5020931;28;20276;-83
2023/02/23 02:57:21;;;;;;;0.00;0.00;;;9.50;99.90;;;;;;5019657;28;20259;-81
2023/02/23 04:18:34;;;;;;;0.10;0.10;;;9.50;99.90;;;;;;5024732;28;20189;-82
2023/02/23 04:21:00;;;;;;;0.10;0.10;;;9.60;99.90;;;;;;5023817;28;20190;-82
2023/02/23 04:23:27;;;;;;;0.10;0.10;;;9.80;99.90;;;;;;5024828;28;20245;-82
2023/02/23 04:25:54;;;;;;;0.10;0.10;;;9.80;99.90;;;;;;5020282;28;20337;-82
2023/02/23 04:28:20;;;;;;;0.10;0.10;;;9.90;99.90;;;;;;5023663;28;20277;-82
2023/02/23 04:30:46;;;;;;;0.10;0.10;;;9.80;99.90;;;;;;5020239;28;20187;-82
2023/02/23 04:33:11;;;;;;;0.10;0.10;;;9.80;99.90;;;;;;5025335;28;20232;-82
2023/02/23 04:35:37;;;;;;;0.10;0.10;;;9.70;99.90;;;;;;5021833;28;20189;-81
2023/02/23 04:38:03;;;;;;;0.10;0.10;;;9.70;99.90;;;;;;5023267;28;20238;-82
2023/02/23 04:40:29;;;;;;;0.10;0.10;;;9.80;99.90;;;;;;5023540;28;20328;-82
2023/02/23 04:42:55;;;;;;;0.10;0.10;;;9.60;99.90;;;;;;5025181;28;20232;-82
2023/02/23 04:45:22;;;;;;;0.10;0.10;;;9.40;99.90;;;;;;5025446;28;20183;-82
2023/02/23 04:47:48;;;;;;;0.10;0.10;;;9.30;99.90;;;;;;5024174;28;20178;-82
2023/02/23 04:50:14;;;;;;;0.10;0.10;;;9.10;99.90;;;;;;5021724;28;20185;-81
2023/02/23 04:52:40;;;;;;;0.10;0.10;;;9.10;99.90;;;;;;5023802;28;20187;-82
2023/02/23 04:55:07;;;;;;;0.10;0.10;;;9.10;99.90;;;;;;5020032;28;20699;-81
2023/02/23 04:57:33;;;;;;;0.10;0.10;;;9.20;99.90;;;;;;5021737;28;20575;-82
2023/02/23 04:59:59;;;;;;;0.10;0.10;;;9.20;99.90;;;;;;5023620;28;20668;-82
2023/02/23 05:02:25;;;;;;;0.10;0.10;;;9.20;99.90;;;;;;5024516;28;20196;-81
2023/02/23 05:04:51;;;;;;;0.10;0.10;;;9.20;99.90;;;;;;5027558;28;20201;-80
2023/02/23 05:07:16;;;;;;;0.10;0.10;;;9.10;99.90;;;;;;5023226;28;20182;-82
2023/02/23 05:09:42;;;;;;;0.10;0.10;;;9.20;99.90;;;;;;5022569;28;20196;-82
2023/02/23 05:12:08;;;;;;;0.10;0.10;;;9.20;99.90;;;;;;5025040;28;20178;-81
2023/02/23 05:14:34;;;;;;;0.10;0.10;;;9.20;99.90;;;;;;5023723;28;20925;-81
2023/02/23 05:16:59;;;;;;;0.10;0.10;;;9.30;99.90;;;;;;5018137;28;20238;-82
2023/02/23 05:19:25;;;;;;;0.10;0.10;;;9.40;99.90;;;;;;5019934;28;20206;-82
2023/02/23 05:21:50;;;;;;;0.00;0.00;;;9.30;99.90;;;;;;5023390;28;20186;-81
2023/02/23 05:24:17;;;;;;;0.10;0.10;;;9.20;99.90;;;;;;5014216;28;20210;-82
2023/02/23 05:26:43;;;;;;;0.00;0.00;;;9.30;99.90;;;;;;5022126;28;20812;-82
2023/02/23 05:29:10;;;;;;;0.10;0.10;;;9.20;99.90;;;;;;5023371;28;20560;-81
2023/02/23 05:31:35;;;;;;;0.10;0.10;;;9.20;99.90;;;;;;5019441;28;20197;-82
2023/02/23 05:34:01;;;;;;;0.10;0.10;;;9.20;99.90;;;;;;5024032;28;20203;-82
2023/02/23 05:36:26;;;;;;;0.10;0.10;;;9.30;99.90;;;;;;5032431;28;20665;-83
2023/02/23 05:38:52;;;;;;;0.07;0.07;;;9.40;99.90;;;;;;5032080;28;20203;-81
2023/02/23 05:41:20;;;;;;;0.10;0.10;;;9.50;99.90;;;;;;5030938;28;20402;-82
2023/02/23 05:43:46;;;;;;;0.10;0.10;;;9.50;99.90;;;;;;5023800;28;20305;-83
2023/02/23 05:46:16;;;;;;;0.10;0.10;;;9.60;99.90;;;;;;5027242;28;20206;-82
2023/02/23 05:48:41;;;;;;;0.10;0.10;;;9.70;99.90;;;;;;5025747;28;20614;-80
2023/02/23 05:51:11;;;;;;;0.10;0.10;;;9.80;99.90;;;;;;5021532;28;20229;-81
2023/02/23 05:53:37;;;;;;;0.10;0.10;;;9.90;99.90;;;;;;5018877;28;20210;-82
2023/02/23 05:56:04;;;;;;;0.10;0.10;;;10.00;99.90;;;;;;5017227;28;21790;-81
2023/02/23 05:58:30;;;;;;;0.10;0.10;;;10.00;99.90;;;;;;5023839;28;20190;-80
2023/02/23 06:00:56;;;;;;;0.10;0.10;;;9.90;99.90;;;;;;5024360;28;21387;-83
2023/02/23 06:03:21;;;;;;;0.00;0.00;;;10.00;99.90;;;;;;5020354;28;20210;-80
2023/02/23 06:05:55;;;;;;;0.10;0.10;;;9.90;99.90;;;;;;5025001;28;20183;-81
2023/02/23 06:08:22;;;;;;;0.10;0.10;;;9.90;99.90;;;;;;5023674;28;20494;-81
2023/02/23 06:10:47;;;;;;;0.10;0.10;;;9.90;99.90;;;;;;5022941;28;20218;-80
2023/02/23 06:13:14;;;;;;;0.10;0.10;;;9.60;99.90;;;;;;5022149;28;20305;-80
2023/02/23 06:15:40;;;;;;;0.10;0.10;;;9.50;99.90;;;;;;5021115;28;20194;-81
2023/02/23 06:18:07;;;;;;;0.10;0.10;;;9.40;99.90;;;;;;5019421;28;20218;-81
2023/02/23 06:20:33;;;;;;;0.10;0.10;;;9.40;99.90;;;;;;5026661;28;20250;-79
2023/02/23 06:22:59;;;;;;;0.10;0.10;;;9.30;99.90;;;;;;5025461;28;20274;-80
2023/02/23 06:25:24;;;;;;;0.10;0.10;;;9.40;99.90;;;;;;5024474;28;20228;-80
2023/02/23 06:27:50;;;;;;;0.10;0.10;;;9.40;99.90;;;;;;5021468;28;20567;-80
2023/02/23 06:30:16;;;;;;;0.10;0.10;;;9.50;99.90;;;;;;5021565;28;20214;-80
2023/02/23 06:32:41;;;;;;;0.10;0.10;;;9.50;99.90;;;;;;5019915;28;20668;-80
2023/02/23 06:35:07;;;;;;;0.10;0.10;;;9.40;99.90;;;;;;5025879;28;20232;-82
2023/02/23 06:37:34;;;;;;;0.10;0.10;;;9.40;99.90;;;;;;5027171;28;20283;-83
2023/02/23 06:40:00;;;;;;;0.10;0.10;;;9.50;99.90;;;;;;5027201;28;20191;-82
2023/02/23 06:42:25;;;;;;;0.10;0.10;;;9.60;99.90;;;;;;5028683;28;20802;-82
2023/02/23 06:44:51;;;;;;;0.00;0.00;;;9.60;99.90;;;;;;5028858;28;20203;-82
2023/02/23 06:47:17;;;;;;;0.10;0.10;;;9.60;99.90;;;;;;5023398;28;20186;-83
2023/02/23 06:49:43;;;;;;;0.10;0.10;;;9.70;99.90;;;;;;5024389;28;20186;-82
2023/02/23 06:52:09;;;;;;;0.10;0.10;;;9.80;99.90;;;;;;5021450;28;20646;-83
2023/02/23 06:54:36;;;;;;;0.10;0.10;;;9.90;99.90;;;;;;5025937;28;20218;-84
2023/02/23 06:57:02;;;;;;;0.10;0.10;;;10.00;99.90;;;;;;5027496;28;20663;-84
2023/02/23 06:59:29;;;;;;;0.10;0.10;;;10.20;99.90;;;;;;5025108;28;20284;-83
2023/02/23 07:01:55;;;;;;;0.10;0.10;;;10.30;99.90;;;;;;5019080;28;20747;-81
2023/02/23 07:04:21;;;;;;;0.10;0.10;;;10.30;99.90;;;;;;5020209;28;20202;-81
2023/02/23 07:06:46;;;;;;;0.10;0.10;;;10.40;99.90;;;;;;5023778;28;20269;-81
2023/02/23 07:09:14;;;;;;;0.10;0.10;;;10.40;99.90;;;;;;5022347;28;20197;-81
2023/02/23 07:11:40;;;;;;;0.10;0.10;;;10.40;99.90;;;;;;5026855;28;20186;-80
2023/02/23 07:14:09;;;;;;;0.10;0.10;;;10.50;99.90;;;;;;5029434;28;20206;-81
2023/02/23 07:16:35;;;;;;;0.10;0.10;;;10.50;99.90;;;;;;5027468;28;20249;-81
2023/02/23 07:19:02;;;;;;;0.10;0.10;;;10.60;99.90;;;;;;5026531;28;20210;-81
2023/02/23 07:21:28;;;;;;;1.70;1.70;;;10.60;99.90;;;;;;5028926;28;20186;-81
2023/02/23 07:23:54;;;;;;;0.10;0.10;;;10.70;99.90;;;;;;5022499;28;20194;-81
2023/02/23 07:26:19;;;;;;;0.00;0.00;;;10.80;99.90;;;;;;5025523;28;20192;-81
2023/02/23 07:28:46;;;;;;;0.10;0.10;;;10.80;99.90;;;;;;5027445;28;20758;-81
2023/02/23 07:31:12;;;;;;;0.10;0.10;;;10.90;99.90;;;;;;5028448;28;20240;-81
2023/02/23 07:33:37;;;;;;;0.10;0.10;;;10.90;99.90;;;;;;5025573;28;20213;-81
2023/02/23 07:36:03;;;;;;;0.10;0.10;;;10.90;99.90;;;;;;5026334;28;20186;-81
2023/02/23 07:38:28;;;;;;;0.10;0.10;;;10.90;99.90;;;;;;5030232;28;20315;-81
2023/02/23 07:40:54;;;;;;;0.10;0.10;;;11.00;99.90;;;;;;5023929;28;20186;-81
2023/02/23 07:43:21;;;;;;;0.10;0.10;;;11.00;99.90;;;;;;5022522;28;20198;-81
2023/02/23 07:45:48;;;;;;;0.10;0.10;;;11.00;99.90;;;;;;5025461;28;20183;-81
2023/02/23 07:48:13;;;;;;;0.10;0.10;;;11.10;99.90;;;;;;5029006;28;20189;-81
2023/02/23 07:50:41;;;;;;;0.10;0.10;;;11.10;99.90;;;;;;5025932;28;20257;-81
2023/02/23 07:53:06;;;;;;;0.10;0.10;;;11.10;99.90;;;;;;5026135;28;20252;-81
2023/02/23 07:55:32;;;;;;;0.10;0.10;;;11.00;99.90;;;;;;5024645;28;20229;-81
2023/02/23 07:57:58;;;;;;;0.10;0.10;;;11.00;99.90;;;;;;5025608;28;20209;-81
2023/02/23 08:00:24;;;;;;;0.10;0.10;;;11.00;99.90;;;;;;5020274;28;20281;-82
2023/02/23 08:02:51;;;;;;;0.10;0.10;;;10.50;99.90;;;;;;5020401;28;20182;-84
2023/02/23 08:05:17;;;;;;;0.10;0.10;;;10.60;99.90;;;;;;5020453;28;20206;-83
2023/02/23 08:07:44;;;;;;;0.10;0.10;;;10.60;99.90;;;;;;5028545;28;20209;-82
2023/02/23 08:10:10;;;;;;;0.10;0.10;;;10.70;99.90;;;;;;5028876;28;20530;-83
2023/02/23 08:12:36;;;;;;;0.10;0.10;;;10.70;99.90;;;;;;5024381;28;20219;-82
2023/02/23 08:15:07;;;;;;;0.10;0.10;;;10.80;99.90;;;;;;5024604;28;20211;-85
2023/02/23 08:17:33;;;;;;;0.10;0.10;;;10.90;99.90;;;;;;5023002;28;20202;-84
2023/02/23 08:19:59;;;;;;;0.10;0.10;;;10.90;99.90;;;;;;5026876;28;20183;-84
2023/02/23 08:22:25;;;;;;;0.10;0.10;;;11.00;99.90;;;;;;5024615;28;20187;-84
2023/02/23 08:24:51;;;;;;;0.10;0.10;;;11.00;99.90;;;;;;5020691;28;20206;-84
2023/02/23 08:27:16;;;;;;;0.10;0.10;;;11.10;99.90;;;;;;5025308;28;20179;-83
2023/02/23 08:29:42;;;;;;;0.10;0.10;;;11.20;99.90;;;;;;5027259;28;20195;-84
2023/02/23 08:32:07;;;;;;;0.10;0.10;;;11.10;99.90;;;;;;5027472;28;20182;-84
2023/02/23 08:34:37;;;;;;;0.10;0.10;;;10.80;99.90;;;;;;5023005;28;20206;-82
2023/02/23 08:37:03;;;;;;;0.10;0.10;;;11.10;99.90;;;;;;5028737;28;20229;-83
2023/02/23 08:39:28;;;;;;;0.10;0.10;;;11.10;99.90;;;;;;5023407;28;20182;-84
2023/02/23 08:41:54;;;;;;;0.10;0.10;;;11.30;99.90;;;;;;5025261;28;20652;-83
2023/02/23 08:44:20;;;;;;;0.10;0.10;;;11.40;99.90;;;;;;5026545;28;20691;-83
2023/02/23 08:46:45;;;;;;;0.10;0.10;;;11.50;99.90;;;;;;5024089;28;20207;-83
2023/02/23 08:49:11;;;;;;;0.10;0.10;;;11.60;99.90;;;;;;5022143;28;20212;-83
2023/02/23 08:51:36;;;;;;;0.10;0.10;;;11.70;99.90;;;;;;5023247;28;20639;-80
2023/02/23 08:54:02;;;;;;;0.10;0.10;;;11.70;99.90;;;;;;5026000;28;20215;-79
2023/02/23 08:56:28;;;;;;;0.00;0.00;;;11.90;99.90;;;;;;5022707;28;20224;-81
2023/02/23 08:58:54;;;;;;;0.10;0.10;;;12.00;99.90;;;;;;5027720;28;20190;-80
2023/02/23 09:01:21;;;;;;;0.10;0.10;;;11.80;99.90;;;;;;5017868;28;20241;-80
2023/02/23 09:03:46;;;;;;;0.03;0.03;;;11.60;99.90;;;;;;5025055;28;20222;-81
2023/02/23 09:06:17;;;;;;;0.10;0.10;;;11.50;99.90;;;;;;5021525;28;20183;-81
2023/02/23 09:08:42;;;;;;;0.10;0.10;;;11.80;99.90;;;;;;5027657;28;20197;-80
2023/02/23 09:11:08;;;;;;;0.10;0.10;;;11.90;99.90;;;;;;5022328;28;20276;-79
2023/02/23 09:13:34;;;;;;;0.10;0.10;;;12.10;99.90;;;;;;5028360;28;20253;-81
2023/02/23 09:16:02;;;;;;;0.10;0.10;;;12.30;99.90;;;;;;5023480;28;20186;-81
2023/02/23 09:18:29;;;;;;;0.10;0.10;;;12.60;99.90;;;;;;5024744;28;20312;-80
2023/02/23 09:20:55;;;;;;;0.10;0.10;;;12.80;99.90;;;;;;5025446;28;20195;-82
2023/02/23 09:23:23;;;;;;;0.10;0.10;;;13.00;99.90;;;;;;5023406;28;20208;-80
2023/02/23 09:25:48;;;;;;;0.10;0.10;;;13.20;99.90;;;;;;5026039;28;20715;-81
2023/02/23 09:28:16;;;;;;;0.10;0.10;;;13.20;99.90;;;;;;5029231;28;20286;-80
2023/02/23 09:30:43;;;;;;;0.10;0.10;;;13.20;99.90;;;;;;5024338;28;20189;-81
2023/02/23 09:33:09;;;;;;;0.10;0.10;;;13.10;99.90;;;;;;5028329;28;20214;-80
2023/02/23 09:35:36;;;;;;;0.10;0.10;;;13.10;99.90;;;;;;5025684;28;20308;-81
2023/02/23 09:38:03;;;;;;;0.10;0.10;;;13.10;99.90;;;;;;5027350;28;20215;-81
2023/02/23 09:40:55;;;;;;;0.10;0.10;;;13.10;99.90;;;;;;5027299;28;20256;-81
2023/02/23 09:43:30;;;;;;;0.10;0.10;;;13.00;99.90;;;;;;5025354;28;20217;-80
2023/02/23 09:46:05;;;;;;;0.10;0.10;;;12.90;99.90;;;;;;5025720;28;20184;-81
2023/02/23 09:48:33;;;;;;;0.10;0.10;;;13.00;99.90;;;;;;5025057;28;20665;-80
2023/02/23 09:50:59;;;;;;;0.10;0.10;;;13.20;99.90;;;;;;5023956;28;20194;-80
2023/02/23 09:53:28;;;;;;;0.10;0.10;;;13.30;99.90;;;;;;5044085;28;20493;-80
2023/02/23 09:55:56;;;;;;;0.10;0.10;;;13.50;99.90;;;;;;5041109;28;20216;-80
2023/02/23 09:58:25;;;;;;;0.10;0.10;;;13.70;99.90;;;;;;5025341;28;20665;-80
2023/02/23 10:01:09;;;;;;;0.10;0.10;;;14.00;99.90;;;;;;5018621;28;20226;-81
2023/02/23 10:03:39;;;;;;;0.10;0.10;;;14.10;99.90;;;;;;5025439;28;20206;-80
2023/02/23 10:06:14;;;;;;;0.10;0.10;;;14.10;99.90;;;;;;5024922;28;20667;-81
2023/02/23 10:09:09;;;;;;;0.10;0.10;;;14.00;99.90;;;;;;5023513;28;20197;-80
2023/02/23 10:11:44;;;;;;;0.10;0.10;;;13.90;99.90;;;;;;5028162;28;20188;-80
2023/02/23 10:14:25;;;;;;;0.10;0.10;;;14.10;99.90;;;;;;5024854;28;20224;-80
2023/02/23 10:17:17;;;;;;;0.00;0.00;;;14.40;99.90;;;;;;5022581;28;20654;-80
2023/02/23 10:20:12;;;;;;;0.10;0.10;;;14.80;99.90;;;;;;5026359;28;20189;-80
2023/02/23 10:22:40;;;;;;;0.10;0.10;;;15.30;99.90;;;;;;5019941;28;20194;-81
2023/02/23 10:25:12;;;;;;;0.10;0.10;;;15.40;99.90;;;;;;5026413;28;20229;-80
2023/02/23 10:27:41;;;;;;;0.10;0.10;;;15.70;99.90;;;;;;5026393;28;20269;-80
2023/02/23 10:30:29;;;;;;;0.10;0.10;;;14.90;99.90;;;;;;5022173;28;20537;-80
2023/02/23 10:32:58;;;;;;;0.10;0.10;;;14.70;99.90;;;;;;5041790;28;20196;-81
2023/02/23 10:35:28;;;;;;;0.10;0.10;;;14.40;99.90;;;;;;5022300;28;20194;-80
2023/02/23 10:37:54;;;;;;;0.10;0.10;;;14.30;99.90;;;;;;5024546;28;20263;-80
2023/02/23 10:40:27;;;;;;;0.10;0.10;;;14.10;99.90;;;;;;5025003;28;20273;-80
2023/02/23 10:42:54;;;;;;;0.10;0.10;;;14.00;99.90;;;;;;5027084;28;20180;-80
2023/02/23 10:45:23;;;;;;;0.00;0.00;;;13.90;99.90;;;;;;5025792;28;20197;-80
2023/02/23 10:48:04;;;;;;;0.10;0.10;;;13.70;99.90;;;;;;5022006;28;20983;-80
2023/02/23 10:50:31;;;;;;;0.10;0.10;;;13.50;99.90;;;;;;5025596;28;20670;-79
2023/02/23 10:53:15;;;;;;;0.10;0.10;;;13.30;99.90;;;;;;5018816;28;20239;-80
2023/02/23 10:55:44;;;;;;;0.10;0.10;;;13.30;99.90;;;;;;5022085;28;20208;-81
2023/02/23 10:58:19;;;;;;;0.10;0.10;;;13.20;99.90;;;;;;5023217;28;20589;-80
2023/02/23 11:00:57;;;;;;;0.10;0.10;;;13.20;99.90;;;;;;5022551;28;20201;-80
2023/02/23 11:03:32;;;;;;;0.10;0.10;;;13.30;99.90;;;;;;5020458;28;20216;-80
2023/02/23 11:05:59;;;;;;;0.10;0.10;;;13.20;99.90;;;;;;5022859;28;20230;-81
2023/02/23 11:08:36;;;;;;;0.10;0.10;;;13.30;99.90;;;;;;5020056;28;20214;-80
2023/02/23 11:11:16;;;;;;;0.10;0.10;;;13.30;99.90;;;;;;5018203;28;20196;-81
2023/02/23 11:13:45;;;;;;;0.10;0.10;;;13.40;99.90;;;;;;5023334;28;20217;-81
2023/02/23 11:16:14;;;;;;;0.10;0.10;;;13.50;99.90;;;;;;5023591;28;20714;-79
2023/02/23 11:19:01;;;;;;;0.10;0.10;;;13.50;99.90;;;;;;5017436;28;20204;-81
2023/02/23 11:21:37;;;;;;;0.07;0.07;;;13.60;99.90;;;;;;5020637;28;20220;-81
2023/02/23 11:24:26;;;;;;;0.10;0.10;;;13.50;99.90;;;;;;5022409;28;20206;-82
2023/02/23 11:27:02;;;;;;;0.10;0.10;;;13.50;99.90;;;;;;5026641;28;20189;-81
2023/02/23 11:29:41;;;;;;;0.10;0.10;;;13.60;99.90;;;;;;5040159;28;20185;-81
2023/02/23 11:32:18;;;;;;;0.10;0.10;;;13.60;99.90;;;;;;5024398;28;20184;-81
2023/02/23 11:34:44;;;;;;;0.10;0.10;;;13.60;99.90;;;;;;5019878;28;20213;-80
2023/02/23 11:37:16;;;;;;;0.10;0.10;;;13.60;99.90;;;;;;5022825;28;20886;-81
2023/02/23 11:39:58;;;;;;;0.10;0.10;;;13.60;99.90;;;;;;5017654;28;20183;-81
2023/02/23 11:42:32;;;;;;;0.10;0.10;;;13.40;99.90;;;;;;5023153;28;20277;-81
2023/02/23 11:45:13;;;;;;;0.10;0.10;;;13.50;99.90;;;;;;5018989;28;20554;-81
2023/02/23 11:47:40;;;;;;;0.10;0.10;;;13.50;99.90;;;;;;5025830;28;20222;-81
2023/02/23 11:50:09;;;;;;;0.10;0.10;;;13.60;99.90;;;;;;5025936;28;20246;-83
2023/02/23 11:52:35;;;;;;;0.10;0.10;;;13.50;99.90;;;;;;5025735;28;20192;-83
2023/02/23 11:55:05;;;;;;;0.10;0.10;;;13.50;99.90;;;;;;5021272;28;20205;-82
2023/02/23 11:57:34;;;;;;;0.10;0.10;;;13.60;99.90;;;;;;5025541;28;20229;-83
2023/02/23 12:00:12;;;;;;;0.00;0.00;;;13.60;99.90;;;;;;5031264;28;20666;-83
2023/02/23 12:02:54;;;;;;;0.10;0.10;;;13.40;99.90;;;;;;5027312;28;20281;-84
2023/02/23 12:05:26;;;;;;;0.10;0.10;;;13.30;99.90;;;;;;5024765;28;20181;-82
2023/02/23 12:08:17;;;;;;;0.10;0.10;;;13.20;99.90;;;;;;5027266;28;20259;-84
2023/02/23 12:10:48;;;;;;;0.10;0.10;;;13.00;99.90;;;;;;5027006;28;20186;-82
2023/02/23 12:13:29;;;;;;;0.00;0.00;;;12.80;99.90;;;;;;5029895;28;20271;-82
2023/02/23 12:16:09;;;;;;;0.10;0.10;;;12.70;99.90;;;;;;5027511;28;20190;-82
2023/02/23 12:18:42;;;;;;;0.10;0.10;;;12.70;99.90;;;;;;5026601;28;20573;-83
2023/02/23 12:21:27;;;;;;;0.10;0.10;;;12.80;99.90;;;;;;5025916;28;20673;-81
2023/02/23 12:24:23;;;;;;;0.10;0.10;;;12.90;99.90;;;;;;5028032;28;20214;-81
2023/02/23 12:26:55;;;;;;;0.10;0.10;;;13.00;99.90;;;;;;5024093;28;20211;-81
2023/02/23 12:29:56;;;;;;;0.10;0.10;;;13.20;99.90;;;;;;5028290;28;20670;-82
2023/02/23 12:32:43;;;;;;;0.10;0.10;;;13.40;99.90;;;;;;5026902;28;20282;-82
2023/02/23 12:35:36;;;;;;;0.10;0.10;;;13.50;99.90;;;;;;5024986;28;20212;-83
2023/02/23 12:38:26;;;;;;;0.10;0.10;;;13.60;99.90;;;;;;5022998;28;20208;-81
2023/02/23 12:40:57;;;;;;;0.10;0.10;;;13.70;99.90;;;;;;5024657;28;20570;-81
2023/02/23 12:43:55;;;;;;;0.10;0.10;;;13.70;99.90;;;;;;5027299;28;20249;-81
2023/02/23 12:46:29;;;;;;;0.10;0.10;;;13.90;99.90;;;;;;5024850;28;20257;-81
2023/02/23 12:49:33;;;;;;;0.10;0.10;;;13.90;99.90;;;;;;5020912;28;20190;-83
2023/02/23 12:52:07;;;;;;;0.10;0.10;;;14.00;99.90;;;;;;5026109;28;20180;-84
2023/02/23 12:54:33;;;;;;;0.10;0.10;;;14.00;99.90;;;;;;5030542;28;20567;-83
2023/02/23 12:57:13;;;;;;;0.10;0.10;;;14.00;99.90;;;;;;5029348;28;20213;-82
2023/02/23 12:59:45;;;;;;;0.10;0.10;;;14.00;99.90;;;;;;5029587;28;20185;-84
2023/02/23 13:02:37;;;;;;;0.10;0.10;;;14.10;99.90;;;;;;5029670;28;20180;-83
2023/02/23 13:05:14;;;;;;;0.10;0.10;;;14.20;99.90;;;;;;5022745;28;20209;-83
2023/02/23 13:08:03;;;;;;;0.10;0.10;;;14.30;99.90;;;;;;5027301;28;20194;-82
2023/02/23 13:10:42;;;;;;;0.10;0.10;;;14.30;99.90;;;;;;5040923;28;20182;-84
2023/02/23 13:13:28;;;;;;;0.10;0.10;;;14.20;99.90;;;;;;5019703;28;20558;-80
2023/02/23 13:16:04;;;;;;;0.10;0.10;;;13.60;99.90;;;;;;5024571;28;20194;-79
2023/02/23 13:18:33;;;;;;;0.10;0.10;;;13.40;99.90;;;;;;5024945;28;20625;-79
2023/02/23 13:21:11;;;;;;;0.10;0.10;;;13.50;99.90;;;;;;5021847;28;20719;-79
2023/02/23 13:24:00;;;;;;;0.10;0.10;;;13.60;99.90;;;;;;5019364;28;20212;-79
2023/02/23 13:26:35;;;;;;;0.10;0.10;;;13.50;99.90;;;;;;5020529;28;20177;-80
2023/02/23 13:29:22;;;;;;;0.10;0.10;;;13.50;99.90;;;;;;5018130;28;20306;-78
2023/02/23 13:31:48;;;;;;;2.83;2.73;;;13.50;99.90;;;;;;5022790;28;20177;-78
2023/02/23 13:34:28;;;;;;;0.10;0.10;;;13.40;99.90;;;;;;5020935;28;20195;-79
2023/02/23 13:36:55;;;;;;;0.10;0.10;;;13.50;99.90;;;;;;5022331;28;20220;-79
2023/02/23 13:39:54;;;;;;;0.10;0.10;;;13.50;99.90;;;;;;5020884;28;20267;-80
2023/02/23 13:42:40;;;;;;;0.10;0.10;;;13.60;99.90;;;;;;5022671;28;20236;-80
2023/02/23 13:45:24;;;;;;;0.10;0.10;;;13.80;99.90;;;;;;5022226;28;20209;-79
2023/02/23 13:48:05;;;;;;;0.10;0.10;;;13.70;99.90;;;;;;5024096;28;20379;-79
2023/02/23 13:50:36;;;;;;;0.10;0.10;;;13.80;99.90;;;;;;5021602;28;20681;-79
2023/02/23 13:53:06;;;;;;;0.10;0.10;;;13.70;99.90;;;;;;5019410;28;20298;-80
2023/02/23 13:55:53;;;;;;;0.10;0.10;;;13.70;99.90;;;;;;5023408;28;20186;-80
2023/02/23 13:58:28;;;;;;;0.10;0.10;;;13.70;99.90;;;;;;5018634;28;20217;-80
2023/02/23 14:01:08;;;;;;;0.10;0.10;;;13.70;99.90;;;;;;5022294;28;20203;-79
2023/02/23 14:03:41;;;;;;;0.10;0.10;;;13.40;99.90;;;;;;5015218;28;20237;-81
2023/02/23 14:06:10;;;;;;;0.10;0.10;;;13.50;99.90;;;;;;5025496;28;20186;-79
2023/02/23 14:08:38;;;;;;;0.10;0.10;;;13.60;99.90;;;;;;5023033;28;20562;-79
2023/02/23 14:11:05;;;;;;;0.10;0.10;;;13.50;99.90;;;;;;5019309;28;20261;-80
2023/02/23 14:13:33;;;;;;;0.10;0.10;;;13.60;99.90;;;;;;5018664;28;20209;-79
2023/02/23 14:16:17;;;;;;;0.10;0.10;;;13.50;99.90;;;;;;5022863;28;20190;-80
2023/02/23 14:19:04;;;;;;;0.10;0.10;;;13.60;99.90;;;;;;5021721;28;20205;-81
2023/02/23 14:21:51;;;;;;;0.10;0.10;;;13.40;99.90;;;;;;5019987;28;20209;-79
2023/02/23 14:24:24;;;;;;;0.10;0.10;;;13.40;99.90;;;;;;5022481;28;20268;-80
2023/02/23 14:27:33;;;;;;;0.10;0.10;;;13.40;99.90;;;;;;5022871;28;20189;-80
2023/02/23 14:30:11;;;;;;;0.10;0.10;;;13.20;99.90;;;;;;4980422;28;20228;-80
2023/02/23 14:32:48;;;;;;;0.10;0.10;;;13.20;99.90;;;;;;5026780;28;20201;-79